sensor_id;sensor_type;location;lat;lon;timestamp;pressure;altitude;pressure_sealevel;temperature;humidity
76352;BME280;65179;47.786;19.138;2023-03-01T00:00:38;101396.53;;;5.07;65.15
76352;BME280;65179;47.786;19.138;2023-03-01T00:03:04;101393.84;;;5.07;65.04
76352;BME280;65179;47.786;19.138;2023-03-01T00:05:29;101402.63;;;5.09;65.52
76352;BME280;65179;47.786;19.138;2023-03-01T00:07:55;101401.91;;;5.07;65.84
76352;BME280;65179;47.786;19.138;2023-03-01T00:10:20;101393.00;;;5.06;66.18
76352;BME280;65179;47.786;19.138;2023-03-01T00:12:46;101400.41;;;5.04;66.89
76352;BME280;65179;47.786;19.138;2023-03-01T00:15:11;101403.22;;;5.03;65.09
76352;BME280;65179;47.786;19.138;2023-03-01T00:17:37;101409.09;;;4.98;65.22
76352;BME280;65179;47.786;19.138;2023-03-01T00:20:03;101400.19;;;4.98;66.49
76352;BME280;65179;47.786;19.138;2023-03-01T00:22:28;101408.28;;;4.98;66.54
76352;BME280;65179;47.786;19.138;2023-03-01T00:24:54;101407.91;;;4.93;66.32
76352;BME280;65179;47.786;19.138;2023-03-01T00:27:19;101411.38;;;4.85;65.57
76352;BME280;65179;47.786;19.138;2023-03-01T00:29:45;101409.19;;;4.81;65.51
76352;BME280;65179;47.786;19.138;2023-03-01T00:32:10;101407.63;;;4.78;65.57
76352;BME280;65179;47.786;19.138;2023-03-01T00:34:36;101405.16;;;4.85;66.11
76352;BME280;65179;47.786;19.138;2023-03-01T00:37:01;101405.47;;;4.82;66.08
76352;BME280;65179;47.786;19.138;2023-03-01T00:39:31;101408.38;;;4.88;66.01
76352;BME280;65179;47.786;19.138;2023-03-01T00:41:57;101399.78;;;4.85;66.01
76352;BME280;65179;47.786;19.138;2023-03-01T00:44:22;101401.56;;;4.76;66.54
76352;BME280;65179;47.786;19.138;2023-03-01T00:46:48;101408.31;;;4.80;66.43
76352;BME280;65179;47.786;19.138;2023-03-01T00:49:13;101411.16;;;4.79;66.63
76352;BME280;65179;47.786;19.138;2023-03-01T00:51:39;101401.25;;;4.79;66.71
76352;BME280;65179;47.786;19.138;2023-03-01T00:54:08;101402.78;;;4.82;66.48
76352;BME280;65179;47.786;19.138;2023-03-01T00:56:34;101393.53;;;4.84;66.96
76352;BME280;65179;47.786;19.138;2023-03-01T00:59:00;101405.00;;;4.86;66.82
76352;BME280;65179;47.786;19.138;2023-03-01T01:01:28;101400.72;;;4.76;66.53
76352;BME280;65179;47.786;19.138;2023-03-01T01:03:58;101398.81;;;4.68;66.48
76352;BME280;65179;47.786;19.138;2023-03-01T01:06:29;101399.69;;;4.77;66.08
76352;BME280;65179;47.786;19.138;2023-03-01T01:08:56;101404.34;;;4.67;66.14
76352;BME280;65179;47.786;19.138;2023-03-01T01:11:23;101399.22;;;4.55;66.44
76352;BME280;65179;47.786;19.138;2023-03-01T01:13:49;101405.63;;;4.54;66.78
76352;BME280;65179;47.786;19.138;2023-03-01T01:16:16;101391.31;;;4.54;66.87
76352;BME280;65179;47.786;19.138;2023-03-01T01:18:42;101399.28;;;4.63;66.49
76352;BME280;65179;47.786;19.138;2023-03-01T01:21:11;101398.06;;;4.58;66.45
76352;BME280;65179;47.786;19.138;2023-03-01T01:23:38;101392.53;;;4.59;66.08
76352;BME280;65179;47.786;19.138;2023-03-01T01:26:06;101380.78;;;4.60;65.85
76352;BME280;65179;47.786;19.138;2023-03-01T01:28:32;101395.12;;;4.69;65.61
76352;BME280;65179;47.786;19.138;2023-03-01T01:30:57;101381.84;;;4.68;65.65
76352;BME280;65179;47.786;19.138;2023-03-01T01:33:23;101386.41;;;4.75;65.68
76352;BME280;65179;47.786;19.138;2023-03-01T01:35:48;101389.06;;;4.67;65.19
76352;BME280;65179;47.786;19.138;2023-03-01T01:38:14;101378.47;;;4.66;65.37
76352;BME280;65179;47.786;19.138;2023-03-01T01:40:45;101377.62;;;4.65;65.66
76352;BME280;65179;47.786;19.138;2023-03-01T01:44:09;101371.38;;;4.65;66.01
76352;BME280;65179;47.786;19.138;2023-03-01T01:49:37;101367.00;;;4.63;66.42
76352;BME280;65179;47.786;19.138;2023-03-01T01:52:24;101369.69;;;4.63;66.74
76352;BME280;65179;47.786;19.138;2023-03-01T01:54:55;101369.34;;;4.58;67.18
76352;BME280;65179;47.786;19.138;2023-03-01T01:57:29;101371.59;;;4.45;66.99
76352;BME280;65179;47.786;19.138;2023-03-01T02:00:00;101368.72;;;4.47;68.02
76352;BME280;65179;47.786;19.138;2023-03-01T02:02:28;101362.28;;;4.40;67.83
76352;BME280;65179;47.786;19.138;2023-03-01T02:05:01;101371.84;;;4.34;68.65
76352;BME280;65179;47.786;19.138;2023-03-01T02:07:30;101351.94;;;4.27;68.82
76352;BME280;65179;47.786;19.138;2023-03-01T02:09:55;101354.78;;;4.26;69.01
76352;BME280;65179;47.786;19.138;2023-03-01T02:12:23;101349.03;;;4.21;69.42
76352;BME280;65179;47.786;19.138;2023-03-01T02:14:49;101353.56;;;4.20;69.57
76352;BME280;65179;47.786;19.138;2023-03-01T02:17:16;101352.56;;;4.21;69.97
76352;BME280;65179;47.786;19.138;2023-03-01T02:22:27;101344.56;;;4.29;68.69
76352;BME280;65179;47.786;19.138;2023-03-01T02:27:22;101338.03;;;4.32;68.84
76352;BME280;65179;47.786;19.138;2023-03-01T02:29:51;101336.72;;;4.36;68.70
76352;BME280;65179;47.786;19.138;2023-03-01T02:32:17;101324.19;;;4.27;68.83
76352;BME280;65179;47.786;19.138;2023-03-01T02:34:53;101322.75;;;4.32;68.74
76352;BME280;65179;47.786;19.138;2023-03-01T02:37:20;101323.06;;;4.29;68.85
76352;BME280;65179;47.786;19.138;2023-03-01T02:39:53;101315.63;;;4.23;68.81
76352;BME280;65179;47.786;19.138;2023-03-01T02:42:27;101317.66;;;4.29;68.38
76352;BME280;65179;47.786;19.138;2023-03-01T02:44:55;101320.00;;;4.24;68.28
76352;BME280;65179;47.786;19.138;2023-03-01T02:47:21;101317.84;;;4.28;67.70
76352;BME280;65179;47.786;19.138;2023-03-01T02:49:47;101315.16;;;4.28;67.90
76352;BME280;65179;47.786;19.138;2023-03-01T02:52:43;101312.00;;;4.32;68.00
76352;BME280;65179;47.786;19.138;2023-03-01T02:55:14;101322.06;;;4.30;67.39
76352;BME280;65179;47.786;19.138;2023-03-01T02:57:43;101320.53;;;4.28;66.44
76352;BME280;65179;47.786;19.138;2023-03-01T03:00:12;101317.66;;;4.29;66.55
76352;BME280;65179;47.786;19.138;2023-03-01T03:02:45;101317.22;;;4.34;67.86
76352;BME280;65179;47.786;19.138;2023-03-01T03:05:13;101315.66;;;4.31;67.67
76352;BME280;65179;47.786;19.138;2023-03-01T03:07:41;101315.37;;;4.34;67.90
76352;BME280;65179;47.786;19.138;2023-03-01T03:10:09;101315.88;;;4.38;67.22
76352;BME280;65179;47.786;19.138;2023-03-01T03:12:37;101322.28;;;4.37;67.73
76352;BME280;65179;47.786;19.138;2023-03-01T03:15:04;101314.22;;;4.37;67.94
76352;BME280;65179;47.786;19.138;2023-03-01T03:17:35;101317.03;;;4.35;67.91
76352;BME280;65179;47.786;19.138;2023-03-01T03:20:01;101308.97;;;4.35;67.79
76352;BME280;65179;47.786;19.138;2023-03-01T03:22:28;101312.38;;;4.37;67.61
76352;BME280;65179;47.786;19.138;2023-03-01T03:24:53;101311.16;;;4.32;68.70
76352;BME280;65179;47.786;19.138;2023-03-01T03:27:19;101310.84;;;4.35;69.06
76352;BME280;65179;47.786;19.138;2023-03-01T03:29:44;101305.59;;;4.33;68.50
76352;BME280;65179;47.786;19.138;2023-03-01T03:32:10;101301.06;;;4.34;68.24
76352;BME280;65179;47.786;19.138;2023-03-01T03:34:35;101305.78;;;4.32;67.76
76352;BME280;65179;47.786;19.138;2023-03-01T03:37:01;101297.47;;;4.25;67.53
76352;BME280;65179;47.786;19.138;2023-03-01T03:39:26;101305.94;;;4.30;67.45
76352;BME280;65179;47.786;19.138;2023-03-01T03:41:53;101297.31;;;4.27;67.44
76352;BME280;65179;47.786;19.138;2023-03-01T03:44:19;101300.16;;;4.25;67.50
76352;BME280;65179;47.786;19.138;2023-03-01T03:46:44;101299.66;;;4.22;67.25
76352;BME280;65179;47.786;19.138;2023-03-01T03:49:10;101296.81;;;4.23;67.24
76352;BME280;65179;47.786;19.138;2023-03-01T03:51:35;101296.12;;;4.21;67.35
76352;BME280;65179;47.786;19.138;2023-03-01T03:54:01;101295.81;;;4.24;67.05
76352;BME280;65179;47.786;19.138;2023-03-01T03:56:27;101294.78;;;4.25;66.97
76352;BME280;65179;47.786;19.138;2023-03-01T03:58:52;101287.41;;;4.27;66.98
76352;BME280;65179;47.786;19.138;2023-03-01T04:01:18;101290.97;;;4.28;66.79
76352;BME280;65179;47.786;19.138;2023-03-01T04:03:43;101296.16;;;4.29;67.02
76352;BME280;65179;47.786;19.138;2023-03-01T04:06:13;101295.88;;;4.32;66.78
76352;BME280;65179;47.786;19.138;2023-03-01T04:08:39;101289.81;;;4.30;67.29
76352;BME280;65179;47.786;19.138;2023-03-01T04:11:05;101294.16;;;4.31;68.17
76352;BME280;65179;47.786;19.138;2023-03-01T04:13:50;101297.41;;;4.35;68.19
76352;BME280;65179;47.786;19.138;2023-03-01T04:16:16;101296.72;;;4.33;68.19
76352;BME280;65179;47.786;19.138;2023-03-01T04:18:42;101291.94;;;4.27;68.04
76352;BME280;65179;47.786;19.138;2023-03-01T04:21:07;101300.38;;;4.32;68.06
76352;BME280;65179;47.786;19.138;2023-03-01T04:23:32;101299.53;;;4.31;68.97
76352;BME280;65179;47.786;19.138;2023-03-01T04:25:59;101300.84;;;4.27;67.81
76352;BME280;65179;47.786;19.138;2023-03-01T04:28:38;101291.13;;;4.26;68.76
76352;BME280;65179;47.786;19.138;2023-03-01T04:31:11;101298.81;;;4.21;68.05
76352;BME280;65179;47.786;19.138;2023-03-01T04:33:53;101294.28;;;4.22;68.03
76352;BME280;65179;47.786;19.138;2023-03-01T04:36:22;101295.66;;;4.26;68.85
76352;BME280;65179;47.786;19.138;2023-03-01T04:38:48;101300.16;;;4.25;69.26
76352;BME280;65179;47.786;19.138;2023-03-01T04:41:15;101298.34;;;4.26;69.08
76352;BME280;65179;47.786;19.138;2023-03-01T04:43:41;101293.47;;;4.29;69.11
76352;BME280;65179;47.786;19.138;2023-03-01T04:46:10;101299.88;;;4.28;69.52
76352;BME280;65179;47.786;19.138;2023-03-01T04:48:38;101296.03;;;4.31;68.60
76352;BME280;65179;47.786;19.138;2023-03-01T04:51:04;101303.94;;;4.32;68.55
76352;BME280;65179;47.786;19.138;2023-03-01T04:53:34;101303.25;;;4.30;69.70
76352;BME280;65179;47.786;19.138;2023-03-01T04:56:02;101297.69;;;4.32;69.40
76352;BME280;65179;47.786;19.138;2023-03-01T04:58:28;101301.87;;;4.26;69.04
76352;BME280;65179;47.786;19.138;2023-03-01T05:00:54;101292.78;;;4.27;69.02
76352;BME280;65179;47.786;19.138;2023-03-01T05:03:20;101300.84;;;4.27;68.97
76352;BME280;65179;47.786;19.138;2023-03-01T05:05:49;101294.50;;;4.28;68.97
76352;BME280;65179;47.786;19.138;2023-03-01T05:08:14;101306.06;;;4.29;68.83
76352;BME280;65179;47.786;19.138;2023-03-01T05:13:09;101297.31;;;4.27;67.90
76352;BME280;65179;47.786;19.138;2023-03-01T05:15:35;101301.53;;;4.29;68.35
76352;BME280;65179;47.786;19.138;2023-03-01T05:18:01;101299.03;;;4.28;68.34
76352;BME280;65179;47.786;19.138;2023-03-01T05:20:30;101298.81;;;4.21;68.71
76352;BME280;65179;47.786;19.138;2023-03-01T05:22:58;101286.34;;;4.20;68.65
76352;BME280;65179;47.786;19.138;2023-03-01T05:25:24;101297.72;;;4.14;69.12
76352;BME280;65179;47.786;19.138;2023-03-01T05:27:50;101296.75;;;4.15;68.55
76352;BME280;65179;47.786;19.138;2023-03-01T05:30:16;101294.59;;;4.19;68.50
76352;BME280;65179;47.786;19.138;2023-03-01T05:32:45;101299.97;;;4.19;69.31
76352;BME280;65179;47.786;19.138;2023-03-01T05:35:12;101295.44;;;4.19;69.65
76352;BME280;65179;47.786;19.138;2023-03-01T05:37:40;101294.59;;;4.19;69.71
76352;BME280;65179;47.786;19.138;2023-03-01T05:40:08;101298.28;;;4.18;69.40
76352;BME280;65179;47.786;19.138;2023-03-01T05:42:42;101308.53;;;4.22;69.10
76352;BME280;65179;47.786;19.138;2023-03-01T05:45:08;101308.50;;;4.14;69.10
76352;BME280;65179;47.786;19.138;2023-03-01T05:47:35;101309.81;;;4.10;69.24
76352;BME280;65179;47.786;19.138;2023-03-01T05:50:01;101299.06;;;4.10;69.14
76352;BME280;65179;47.786;19.138;2023-03-01T05:52:26;101293.97;;;4.07;69.05
76352;BME280;65179;47.786;19.138;2023-03-01T05:54:52;101299.44;;;4.15;69.65
76352;BME280;65179;47.786;19.138;2023-03-01T05:57:17;101310.53;;;4.20;69.52
76352;BME280;65179;47.786;19.138;2023-03-01T05:59:43;101313.78;;;4.24;69.23
76352;BME280;65179;47.786;19.138;2023-03-01T06:02:08;101309.94;;;4.26;69.05
76352;BME280;65179;47.786;19.138;2023-03-01T06:04:34;101306.22;;;4.27;69.08
76352;BME280;65179;47.786;19.138;2023-03-01T06:06:59;101303.53;;;4.27;69.26
76352;BME280;65179;47.786;19.138;2023-03-01T06:09:24;101305.09;;;4.30;69.27
76352;BME280;65179;47.786;19.138;2023-03-01T06:11:51;101308.94;;;4.27;69.25
76352;BME280;65179;47.786;19.138;2023-03-01T06:14:16;101316.13;;;4.27;69.13
76352;BME280;65179;47.786;19.138;2023-03-01T06:16:42;101314.69;;;4.32;68.98
76352;BME280;65179;47.786;19.138;2023-03-01T06:19:07;101315.84;;;4.30;69.11
76352;BME280;65179;47.786;19.138;2023-03-01T06:21:32;101319.38;;;4.30;69.03
76352;BME280;65179;47.786;19.138;2023-03-01T06:23:58;101318.81;;;4.27;69.26
76352;BME280;65179;47.786;19.138;2023-03-01T06:26:23;101308.94;;;4.27;69.25
76352;BME280;65179;47.786;19.138;2023-03-01T06:28:49;101324.19;;;4.27;69.42
76352;BME280;65179;47.786;19.138;2023-03-01T06:31:14;101316.53;;;4.32;69.35
76352;BME280;65179;47.786;19.138;2023-03-01T06:33:40;101326.44;;;4.31;69.56
76352;BME280;65179;47.786;19.138;2023-03-01T06:36:06;101325.37;;;4.24;69.74
76352;BME280;65179;47.786;19.138;2023-03-01T06:38:32;101331.59;;;4.25;69.67
76352;BME280;65179;47.786;19.138;2023-03-01T06:40:57;101334.44;;;4.23;69.50
76352;BME280;65179;47.786;19.138;2023-03-01T06:43:23;101329.75;;;4.25;69.47
76352;BME280;65179;47.786;19.138;2023-03-01T06:45:49;101334.13;;;4.26;69.69
76352;BME280;65179;47.786;19.138;2023-03-01T06:48:15;101329.28;;;4.30;69.84
76352;BME280;65179;47.786;19.138;2023-03-01T06:50:40;101335.81;;;4.27;68.75
76352;BME280;65179;47.786;19.138;2023-03-01T06:53:06;101333.97;;;4.28;68.49
76352;BME280;65179;47.786;19.138;2023-03-01T06:55:32;101336.38;;;4.31;68.38
76352;BME280;65179;47.786;19.138;2023-03-01T06:57:59;101325.06;;;4.27;68.87
76352;BME280;65179;47.786;19.138;2023-03-01T07:00:26;101338.87;;;4.32;68.85
76352;BME280;65179;47.786;19.138;2023-03-01T07:02:52;101335.19;;;4.33;68.71
76352;BME280;65179;47.786;19.138;2023-03-01T07:05:18;101336.13;;;4.24;68.13
76352;BME280;65179;47.786;19.138;2023-03-01T07:07:43;101333.13;;;4.27;68.71
76352;BME280;65179;47.786;19.138;2023-03-01T07:10:09;101333.75;;;4.21;68.35
76352;BME280;65179;47.786;19.138;2023-03-01T07:12:35;101331.06;;;4.21;68.31
76352;BME280;65179;47.786;19.138;2023-03-01T07:15:01;101336.44;;;4.21;67.81
76352;BME280;65179;47.786;19.138;2023-03-01T07:17:27;101336.13;;;4.24;67.83
76352;BME280;65179;47.786;19.138;2023-03-01T07:19:52;101327.75;;;4.27;67.97
76352;BME280;65179;47.786;19.138;2023-03-01T07:22:18;101338.50;;;4.27;66.86
76352;BME280;65179;47.786;19.138;2023-03-01T07:24:43;101330.66;;;4.34;66.97
76352;BME280;65179;47.786;19.138;2023-03-01T07:27:09;101322.41;;;4.35;66.50
76352;BME280;65179;47.786;19.138;2023-03-01T07:29:35;101322.41;;;4.35;66.49
76352;BME280;65179;47.786;19.138;2023-03-01T07:32:02;101316.09;;;4.44;66.13
76352;BME280;65179;47.786;19.138;2023-03-01T07:34:28;101317.00;;;4.53;65.99
76352;BME280;65179;47.786;19.138;2023-03-01T07:36:53;101313.84;;;4.57;66.17
76352;BME280;65179;47.786;19.138;2023-03-01T07:39:19;101313.41;;;4.70;65.45
76352;BME280;65179;47.786;19.138;2023-03-01T07:41:44;101316.28;;;4.77;65.03
76352;BME280;65179;47.786;19.138;2023-03-01T07:44:10;101312.97;;;4.83;64.83
76352;BME280;65179;47.786;19.138;2023-03-01T07:46:36;101307.94;;;4.88;64.69
76352;BME280;65179;47.786;19.138;2023-03-01T07:49:02;101312.38;;;4.97;64.71
76352;BME280;65179;47.786;19.138;2023-03-01T07:51:27;101317.56;;;4.98;64.78
76352;BME280;65179;47.786;19.138;2023-03-01T07:53:53;101320.81;;;5.02;64.75
76352;BME280;65179;47.786;19.138;2023-03-01T07:56:19;101309.69;;;5.05;64.44
76352;BME280;65179;47.786;19.138;2023-03-01T07:58:45;101314.59;;;5.09;63.96
76352;BME280;65179;47.786;19.138;2023-03-01T08:01:13;101308.72;;;5.06;64.04
76352;BME280;65179;47.786;19.138;2023-03-01T08:03:39;101310.44;;;5.15;64.15
76352;BME280;65179;47.786;19.138;2023-03-01T08:06:07;101310.75;;;5.20;63.86
76352;BME280;65179;47.786;19.138;2023-03-01T08:08:33;101315.16;;;5.21;63.45
76352;BME280;65179;47.786;19.138;2023-03-01T08:11:00;101310.12;;;5.26;63.42
76352;BME280;65179;47.786;19.138;2023-03-01T08:13:27;101312.34;;;5.38;62.63
76352;BME280;65179;47.786;19.138;2023-03-01T08:15:52;101307.16;;;5.45;62.22
76352;BME280;65179;47.786;19.138;2023-03-01T08:18:20;101314.09;;;5.56;62.02
76352;BME280;65179;47.786;19.138;2023-03-01T08:20:46;101308.50;;;5.49;60.80
76352;BME280;65179;47.786;19.138;2023-03-01T08:23:12;101306.84;;;5.56;60.69
76352;BME280;65179;47.786;19.138;2023-03-01T08:25:39;101297.59;;;5.75;61.13
76352;BME280;65179;47.786;19.138;2023-03-01T08:28:05;101292.91;;;5.85;60.18
76352;BME280;65179;47.786;19.138;2023-03-01T08:30:31;101292.75;;;5.94;60.12
76352;BME280;65179;47.786;19.138;2023-03-01T08:32:56;101287.56;;;5.93;59.57
76352;BME280;65179;47.786;19.138;2023-03-01T08:35:22;101287.87;;;6.14;59.51
76352;BME280;65179;47.786;19.138;2023-03-01T08:37:48;101288.72;;;6.23;58.87
76352;BME280;65179;47.786;19.138;2023-03-01T08:40:14;101274.22;;;6.32;58.15
76352;BME280;65179;47.786;19.138;2023-03-01T08:42:40;101287.13;;;6.52;58.09
76352;BME280;65179;47.786;19.138;2023-03-01T08:45:07;101285.13;;;6.46;57.42
76352;BME280;65179;47.786;19.138;2023-03-01T08:47:32;101292.88;;;6.57;56.77
76352;BME280;65179;47.786;19.138;2023-03-01T08:49:59;101282.19;;;6.72;56.92
76352;BME280;65179;47.786;19.138;2023-03-01T08:52:25;101275.94;;;6.71;56.03
76352;BME280;65179;47.786;19.138;2023-03-01T08:54:51;101280.87;;;7.07;54.86
76352;BME280;65179;47.786;19.138;2023-03-01T08:57:17;101269.50;;;7.27;55.45
76352;BME280;65179;47.786;19.138;2023-03-01T08:59:42;101273.28;;;7.41;54.67
76352;BME280;65179;47.786;19.138;2023-03-01T09:02:16;101272.22;;;7.73;53.50
76352;BME280;65179;47.786;19.138;2023-03-01T09:04:42;101267.59;;;7.81;53.23
76352;BME280;65179;47.786;19.138;2023-03-01T09:07:08;101260.56;;;7.95;52.63
76352;BME280;65179;47.786;19.138;2023-03-01T09:09:34;101255.62;;;7.76;52.12
76352;BME280;65179;47.786;19.138;2023-03-01T09:11:59;101253.31;;;7.73;52.42
76352;BME280;65179;47.786;19.138;2023-03-01T09:14:25;101251.22;;;8.20;51.99
76352;BME280;65179;47.786;19.138;2023-03-01T09:16:50;101251.34;;;8.41;51.35
76352;BME280;65179;47.786;19.138;2023-03-01T09:19:16;101250.16;;;8.44;51.16
76352;BME280;65179;47.786;19.138;2023-03-01T09:21:41;101253.41;;;8.39;51.37
76352;BME280;65179;47.786;19.138;2023-03-01T09:24:17;101253.22;;;8.84;50.56
76352;BME280;65179;47.786;19.138;2023-03-01T09:26:43;101245.09;;;8.99;49.77
76352;BME280;65179;47.786;19.138;2023-03-01T09:29:12;101260.25;;;9.44;49.39
76352;BME280;65179;47.786;19.138;2023-03-01T09:31:38;101248.19;;;9.32;48.84
76352;BME280;65179;47.786;19.138;2023-03-01T09:34:04;101244.50;;;9.54;48.32
76352;BME280;65179;47.786;19.138;2023-03-01T09:36:30;101245.44;;;10.10;47.79
76352;BME280;65179;47.786;19.138;2023-03-01T09:38:57;101242.03;;;10.01;47.30
76352;BME280;65179;47.786;19.138;2023-03-01T09:41:44;101234.56;;;10.58;46.65
76352;BME280;65179;47.786;19.138;2023-03-01T09:44:37;101233.53;;;9.83;46.08
76352;BME280;65179;47.786;19.138;2023-03-01T09:47:05;101228.12;;;10.32;46.71
76352;BME280;65179;47.786;19.138;2023-03-01T09:49:36;101221.50;;;10.41;45.48
76352;BME280;65179;47.786;19.138;2023-03-01T09:54:51;101227.97;;;10.81;45.27
76352;BME280;65179;47.786;19.138;2023-03-01T09:57:28;101216.53;;;10.92;45.13
76352;BME280;65179;47.786;19.138;2023-03-01T10:03:28;101201.50;;;11.56;43.53
76352;BME280;65179;47.786;19.138;2023-03-01T10:06:14;101193.97;;;10.85;44.13
76352;BME280;65179;47.786;19.138;2023-03-01T10:09:07;101193.53;;;11.61;43.30
76352;BME280;65179;47.786;19.138;2023-03-01T10:11:36;101196.13;;;11.69;43.41
76352;BME280;65179;47.786;19.138;2023-03-01T10:14:13;101193.44;;;11.22;43.53
76352;BME280;65179;47.786;19.138;2023-03-01T10:16:51;101186.50;;;12.06;42.83
76352;BME280;65179;47.786;19.138;2023-03-01T10:19:41;101186.47;;;11.67;42.01
76352;BME280;65179;47.786;19.138;2023-03-01T10:24:38;101182.72;;;11.87;41.38
76352;BME280;65179;47.786;19.138;2023-03-01T10:32:10;101173.47;;;12.98;40.21
76352;BME280;65179;47.786;19.138;2023-03-01T10:34:37;101164.03;;;13.69;39.80
76352;BME280;65179;47.786;19.138;2023-03-01T10:37:16;101166.72;;;14.01;39.34
76352;BME280;65179;47.786;19.138;2023-03-01T10:40:10;101163.53;;;14.28;37.86
76352;BME280;65179;47.786;19.138;2023-03-01T10:42:47;101150.44;;;13.63;38.21
76352;BME280;65179;47.786;19.138;2023-03-01T10:45:22;101148.16;;;14.34;38.03
76352;BME280;65179;47.786;19.138;2023-03-01T10:48:05;101142.16;;;15.09;37.16
76352;BME280;65179;47.786;19.138;2023-03-01T10:50:31;101146.25;;;14.71;35.91
76352;BME280;65179;47.786;19.138;2023-03-01T10:52:59;101138.81;;;14.60;36.88
76352;BME280;65179;47.786;19.138;2023-03-01T10:55:36;101126.91;;;14.72;36.77
76352;BME280;65179;47.786;19.138;2023-03-01T11:00:54;101122.34;;;14.30;37.04
76352;BME280;65179;47.786;19.138;2023-03-01T11:03:41;101110.16;;;15.28;36.09
76352;BME280;65179;47.786;19.138;2023-03-01T11:08:43;101107.44;;;15.10;35.28
76352;BME280;65179;47.786;19.138;2023-03-01T11:13:35;101102.81;;;15.10;35.82
76352;BME280;65179;47.786;19.138;2023-03-01T11:16:02;101086.16;;;15.42;35.23
76352;BME280;65179;47.786;19.138;2023-03-01T11:18:30;101090.53;;;15.43;34.96
76352;BME280;65179;47.786;19.138;2023-03-01T11:20:57;101084.44;;;15.82;34.50
76352;BME280;65179;47.786;19.138;2023-03-01T11:23:25;101075.50;;;16.21;33.45
76352;BME280;65179;47.786;19.138;2023-03-01T11:25:59;101083.63;;;16.05;34.35
76352;BME280;65179;47.786;19.138;2023-03-01T11:28:27;101081.41;;;15.49;35.07
76352;BME280;65179;47.786;19.138;2023-03-01T11:31:04;101078.72;;;15.60;34.83
76352;BME280;65179;47.786;19.138;2023-03-01T11:36:30;101074.72;;;16.60;33.25
76352;BME280;65179;47.786;19.138;2023-03-01T11:42:00;101069.31;;;16.14;34.28
76352;BME280;65179;47.786;19.138;2023-03-01T11:44:30;101061.31;;;16.13;34.12
76352;BME280;65179;47.786;19.138;2023-03-01T11:49:53;101068.28;;;16.95;33.29
76352;BME280;65179;47.786;19.138;2023-03-01T11:52:57;101068.09;;;17.13;32.76
76352;BME280;65179;47.786;19.138;2023-03-01T12:01:06;101055.88;;;17.37;32.76
76352;BME280;65179;47.786;19.138;2023-03-01T12:09:31;101037.91;;;17.46;31.98
76352;BME280;65179;47.786;19.138;2023-03-01T12:12:17;101032.56;;;17.06;32.78
76352;BME280;65179;47.786;19.138;2023-03-01T12:23:43;101028.91;;;14.99;35.48
76352;BME280;65179;47.786;19.138;2023-03-01T12:26:20;101027.34;;;14.25;37.35
76352;BME280;65179;47.786;19.138;2023-03-01T12:29:05;101022.03;;;15.61;35.82
76352;BME280;65179;47.786;19.138;2023-03-01T12:46:04;101006.69;;;14.95;36.17
76352;BME280;65179;47.786;19.138;2023-03-01T12:49:08;101006.37;;;14.74;36.74
76352;BME280;65179;47.786;19.138;2023-03-01T12:51:35;101008.31;;;14.55;37.16
76352;BME280;65179;47.786;19.138;2023-03-01T12:54:18;100997.69;;;14.11;38.61
76352;BME280;65179;47.786;19.138;2023-03-01T12:56:46;100998.69;;;13.80;39.34
76352;BME280;65179;47.786;19.138;2023-03-01T12:59:38;100996.00;;;13.74;39.65
76352;BME280;65179;47.786;19.138;2023-03-01T13:02:13;100991.25;;;13.87;39.29
76352;BME280;65179;47.786;19.138;2023-03-01T13:05:06;100977.59;;;14.41;38.29
76352;BME280;65179;47.786;19.138;2023-03-01T13:20:20;100972.31;;;13.49;39.63
76352;BME280;65179;47.786;19.138;2023-03-01T13:22:47;100969.19;;;13.71;39.31
76352;BME280;65179;47.786;19.138;2023-03-01T13:25:18;100962.75;;;13.83;39.34
76352;BME280;65179;47.786;19.138;2023-03-01T13:27:46;100969.53;;;14.10;39.36
76352;BME280;65179;47.786;19.138;2023-03-01T13:35:54;100963.88;;;13.94;39.24
76352;BME280;65179;47.786;19.138;2023-03-01T13:38:45;100965.41;;;13.90;39.27
76352;BME280;65179;47.786;19.138;2023-03-01T13:41:16;100957.56;;;14.11;38.64
76352;BME280;65179;47.786;19.138;2023-03-01T13:43:44;100960.75;;;14.08;38.58
76352;BME280;65179;47.786;19.138;2023-03-01T13:46:17;100962.34;;;14.34;38.40
76352;BME280;65179;47.786;19.138;2023-03-01T13:48:52;100965.53;;;13.95;38.99
76352;BME280;65179;47.786;19.138;2023-03-01T13:51:25;100961.00;;;14.07;39.50
76352;BME280;65179;47.786;19.138;2023-03-01T13:53:51;100945.56;;;14.12;39.13
76352;BME280;65179;47.786;19.138;2023-03-01T13:56:28;100959.37;;;13.99;39.41
76352;BME280;65179;47.786;19.138;2023-03-01T13:59:02;100949.16;;;13.77;39.72
76352;BME280;65179;47.786;19.138;2023-03-01T14:01:32;100946.13;;;13.66;39.71
76352;BME280;65179;47.786;19.138;2023-03-01T14:03:59;100951.09;;;13.51;40.39
76352;BME280;65179;47.786;19.138;2023-03-01T14:06:27;100940.97;;;13.77;40.20
76352;BME280;65179;47.786;19.138;2023-03-01T14:09:12;100944.53;;;13.59;39.76
76352;BME280;65179;47.786;19.138;2023-03-01T14:11:49;100938.06;;;13.35;40.03
76352;BME280;65179;47.786;19.138;2023-03-01T14:19:29;100928.09;;;13.65;40.52
76352;BME280;65179;47.786;19.138;2023-03-01T14:22:12;100917.16;;;13.47;39.83
76352;BME280;65179;47.786;19.138;2023-03-01T14:24:47;100918.28;;;13.58;40.12
76352;BME280;65179;47.786;19.138;2023-03-01T14:27:14;100909.69;;;13.36;40.16
76352;BME280;65179;47.786;19.138;2023-03-01T14:29:41;100904.53;;;13.28;40.81
76352;BME280;65179;47.786;19.138;2023-03-01T14:32:19;100910.91;;;13.22;40.64
76352;BME280;65179;47.786;19.138;2023-03-01T14:34:47;100913.41;;;13.24;40.53
76352;BME280;65179;47.786;19.138;2023-03-01T14:39:48;100900.44;;;13.19;40.45